Time;durP1;ratioP1;P1;durP2;ratioP2;P2;SDS_P1;SDS_P2;PMS_P1;PMS_P2;Temp;Humidity;BMP_temperature;BMP_pressure;BME280_temperature;BME280_humidity;BME280_pressure;Samples;Min_cycle;Max_cycle;Signal;HPM_P1;HPM_P2
2023/02/18 00:00:12;;;;;;;3.77;3.57;;;;;;;8.23;100.00;97666.75;5043369;28;20221;-64
2023/02/18 00:02:39;;;;;;;2.97;2.77;;;;;;;8.26;100.00;97670.91;5033326;28;20222;-64
2023/02/18 00:05:07;;;;;;;3.30;3.00;;;;;;;8.23;100.00;97650.91;5022878;28;20585;-64
2023/02/18 00:07:35;;;;;;;3.20;3.03;;;;;;;8.28;100.00;97661.00;5040923;28;20626;-66
2023/02/18 00:10:04;;;;;;;3.40;3.20;;;;;;;8.21;100.00;97662.63;5046295;28;20204;-64
2023/02/18 00:12:32;;;;;;;3.77;3.57;;;;;;;8.20;100.00;97666.25;5039904;28;20223;-66
2023/02/18 00:15:00;;;;;;;3.40;3.10;;;;;;;8.14;100.00;97670.34;5057676;28;20621;-64
2023/02/18 00:17:29;;;;;;;3.80;3.60;;;;;;;8.16;100.00;97670.19;5034347;28;20761;-66
2023/02/18 00:19:57;;;;;;;3.60;3.40;;;;;;;8.16;100.00;97665.72;5055539;28;20670;-64
2023/02/18 00:22:25;;;;;;;3.40;3.13;;;;;;;8.19;100.00;97656.69;5001540;28;20252;-65
2023/02/18 00:24:52;;;;;;;2.93;2.80;;;;;;;8.32;100.00;97658.84;5058165;28;20460;-64
2023/02/18 00:27:20;;;;;;;3.33;3.13;;;;;;;8.40;100.00;97649.16;5025066;28;20323;-65
2023/02/18 00:29:48;;;;;;;3.30;3.20;;;;;;;8.44;100.00;97648.84;5051564;28;20390;-65
2023/02/18 00:32:15;;;;;;;3.40;3.20;;;;;;;8.42;100.00;97648.19;5034467;28;20811;-63
2023/02/18 00:34:44;;;;;;;3.33;3.13;;;;;;;8.44;100.00;97648.84;5048481;28;20214;-63
2023/02/18 00:37:12;;;;;;;3.33;3.13;;;;;;;8.49;100.00;97642.16;5004421;28;20216;-63
2023/02/18 00:39:39;;;;;;;3.00;2.80;;;;;;;8.52;100.00;97647.09;5055265;28;20193;-64
2023/02/18 00:42:07;;;;;;;2.73;2.63;;;;;;;8.52;100.00;97644.47;5040526;28;20608;-63
2023/02/18 00:44:35;;;;;;;3.00;2.80;;;;;;;8.56;100.00;97645.00;5050196;28;20378;-65
2023/02/18 00:47:02;;;;;;;3.10;2.97;;;;;;;8.46;100.00;97636.31;5043450;28;20210;-63
2023/02/18 00:49:30;;;;;;;2.80;2.63;;;;;;;8.53;100.00;97647.94;5039639;28;20770;-64
2023/02/18 00:51:59;;;;;;;3.23;2.93;;;;;;;8.59;100.00;97651.75;5006266;28;20215;-63
2023/02/18 00:54:27;;;;;;;2.93;2.83;;;;;;;8.51;100.00;97637.53;5051373;28;20505;-62
2023/02/18 00:56:54;;;;;;;2.67;2.50;;;;;;;8.56;100.00;97647.63;5071379;28;20206;-65
2023/02/18 00:59:22;;;;;;;2.90;2.80;;;;;;;8.59;100.00;97633.25;5044215;28;20202;-65
2023/02/18 01:01:49;;;;;;;2.27;2.17;;;;;;;8.66;100.00;97642.19;5068230;28;21106;-65
2023/02/18 01:04:17;;;;;;;3.20;3.00;;;;;;;8.65;100.00;97640.53;5047580;28;20225;-64
2023/02/18 01:06:45;;;;;;;2.70;2.60;;;;;;;8.70;100.00;97638.25;5065704;28;20207;-65
2023/02/18 01:09:14;;;;;;;2.90;2.80;;;;;;;8.76;100.00;97647.34;5015045;28;20218;-62
2023/02/18 01:11:42;;;;;;;2.67;2.57;;;;;;;8.69;100.00;97642.72;5067199;28;20202;-64
2023/02/18 01:14:09;;;;;;;2.87;2.77;;;;;;;8.66;100.00;97636.91;5049673;28;20222;-63
2023/02/18 01:16:37;;;;;;;2.80;2.70;;;;;;;8.69;100.00;97642.72;5039578;28;20737;-63
2023/02/18 01:19:04;;;;;;;4.27;2.77;;;;;;;8.69;100.00;97633.94;5044732;28;20786;-64
2023/02/18 01:21:32;;;;;;;2.83;2.73;;;;;;;8.66;100.00;97637.75;5058164;28;20226;-64
2023/02/18 01:24:00;;;;;;;2.77;2.57;;;;;;;8.76;100.00;97628.84;5013130;28;20589;-64
2023/02/18 01:26:28;;;;;;;2.57;2.47;;;;;;;8.80;100.00;97636.31;5067613;28;20657;-65
2023/02/18 01:28:56;;;;;;;3.20;3.00;;;;;;;8.85;100.00;97627.88;5064766;28;20447;-64
2023/02/18 01:31:24;;;;;;;2.93;2.83;;;;;;;8.86;100.00;97626.06;5044902;28;20241;-64
2023/02/18 01:33:52;;;;;;;3.10;2.90;;;;;;;8.78;100.00;97611.03;5047643;28;20636;-63
2023/02/18 01:36:20;;;;;;;2.40;2.30;;;;;;;8.85;100.00;97625.22;5066336;28;20213;-62
2023/02/18 01:38:47;;;;;;;2.50;2.30;;;;;;;8.86;100.00;97618.97;5019118;28;20214;-63
2023/02/18 01:41:15;;;;;;;2.30;2.20;;;;;;;8.79;100.00;97625.88;5064815;28;20254;-64
2023/02/18 01:43:44;;;;;;;2.83;2.60;;;;;;;8.75;100.00;97619.28;5059962;28;20230;-62
2023/02/18 01:46:17;;;;;;;2.00;1.90;;;;;;;8.71;100.00;97617.94;5039379;28;20450;-64
2023/02/18 01:48:48;;;;;;;3.07;2.87;;;;;;;8.72;100.00;97606.38;5065388;28;20685;-62
2023/02/18 01:51:18;;;;;;;2.53;2.43;;;;;;;8.71;100.00;97608.19;5042055;28;20286;-62
2023/02/18 01:53:51;;;;;;;2.63;2.33;;;;;;;8.70;100.00;97614.47;5033689;28;20322;-62
2023/02/18 01:56:24;;;;;;;2.00;1.90;;;;;;;8.72;100.00;97614.31;5057024;28;20212;-64
2023/02/18 01:58:55;;;;;;;2.80;2.60;;;;;;;8.73;100.00;97614.16;5047247;28;20203;-62
2023/02/18 02:01:23;;;;;;;2.20;2.10;;;;;;;8.71;100.00;97618.75;5026059;28;20656;-64
2023/02/18 02:03:50;;;;;;;2.70;2.50;;;;;;;8.65;100.00;97628.16;5048579;28;20218;-62
2023/02/18 02:06:22;;;;;;;2.80;2.70;;;;;;;8.64;100.00;97631.81;5033377;28;20206;-65
2023/02/18 02:08:51;;;;;;;2.30;2.20;;;;;;;8.63;100.00;97624.88;5045970;28;20203;-62
2023/02/18 02:11:24;;;;;;;2.67;2.10;;;;;;;8.62;100.00;97628.50;5006072;28;20210;-64
2023/02/18 02:14:05;;;;;;;2.10;2.00;;;;;;;8.57;100.00;97628.16;5052558;28;20492;-62
2023/02/18 02:16:39;;;;;;;2.20;2.10;;;;;;;8.54;100.00;97629.28;5047394;28;20467;-65
2023/02/18 02:19:25;;;;;;;2.40;2.30;;;;;;;8.51;100.00;97623.47;5030361;28;20226;-63
2023/02/18 02:22:11;;;;;;;2.40;2.30;;;;;;;8.52;100.00;97627.78;5027948;28;20420;-66
2023/02/18 02:24:53;;;;;;;2.00;1.90;;;;;;;8.51;100.00;97620.84;5049662;28;20217;-66
2023/02/18 02:27:24;;;;;;;1.70;1.70;;;;;;;8.47;100.00;97617.69;5004342;28;20215;-65
2023/02/18 02:30:31;;;;;;;1.63;1.53;;;;;;;8.45;100.00;97617.03;5056674;28;20200;-66
2023/02/18 02:33:32;;;;;;;2.00;1.90;;;;;;;8.45;100.00;97622.31;5035965;28;20226;-64
2023/02/18 02:36:03;;;;;;;2.20;2.10;;;;;;;8.48;100.00;97610.56;5031689;28;22022;-64
2023/02/18 02:38:36;;;;;;;1.97;1.87;;;;;;;8.51;100.00;97597.06;5045323;28;20336;-64
2023/02/18 02:41:12;;;;;;;2.10;2.00;;;;;;;8.50;100.00;97587.50;5005557;28;20206;-61
2023/02/18 02:43:46;;;;;;;2.00;1.90;;;;;;;8.51;100.00;97605.84;5050209;28;20256;-62
2023/02/18 02:46:18;;;;;;;2.20;2.00;;;;;;;8.49;100.00;97593.75;5056257;28;20198;-62
2023/02/18 02:48:49;;;;;;;1.90;1.80;;;;;;;8.49;100.00;97591.97;5026676;28;20720;-63
2023/02/18 02:51:24;;;;;;;1.90;1.80;;;;;;;8.42;100.00;97572.44;5032554;28;20239;-62
2023/02/18 02:53:51;;;;;;;2.43;2.23;;;;;;;8.42;100.00;97590.09;5046737;28;20562;-63
2023/02/18 02:56:21;;;;;;;2.97;2.30;;;;;;;8.41;100.00;97589.28;5014263;28;20210;-61
2023/02/18 02:58:55;;;;;;;2.30;2.20;;;;;;;8.40;100.00;97596.34;5071844;28;20296;-64
2023/02/18 03:01:33;;;;;;;2.57;2.47;;;;;;;8.39;100.00;97596.53;5062211;28;20416;-62
2023/02/18 03:04:34;;;;;;;2.37;2.27;;;;;;;8.34;100.00;97590.91;5047318;28;20757;-64
2023/02/18 03:07:11;;;;;;;2.30;2.20;;;;;;;8.41;100.00;97594.56;5029406;28;20205;-63
2023/02/18 03:09:50;;;;;;;2.10;2.00;;;;;;;8.38;100.00;97590.41;5064838;28;20208;-62
2023/02/18 03:12:23;;;;;;;2.27;2.17;;;;;;;8.37;100.00;97586.13;5018284;28;20230;-62
2023/02/18 03:14:56;;;;;;;2.00;1.90;;;;;;;8.38;100.00;97592.25;5066023;28;20893;-64
2023/02/18 03:17:28;;;;;;;2.43;2.23;;;;;;;8.38;100.00;97592.25;5066091;28;20206;-62
2023/02/18 03:19:58;;;;;;;2.00;2.00;;;;;;;8.38;100.00;97585.13;5054752;28;20721;-64
2023/02/18 03:22:29;;;;;;;2.70;2.50;;;;;;;8.40;100.00;97590.28;5044231;28;20676;-61
2023/02/18 03:24:58;;;;;;;1.90;1.80;;;;;;;8.37;100.00;97595.88;5064543;28;20533;-64
2023/02/18 03:27:28;;;;;;;2.27;2.17;;;;;;;8.36;100.00;97586.28;5020205;28;20446;-62
2023/02/18 03:29:59;;;;;;;2.67;2.50;;;;;;;8.38;100.00;97587.78;5064878;28;20199;-65
2023/02/18 03:32:29;;;;;;;2.50;2.40;;;;;;;8.33;100.00;97583.94;5067675;28;20535;-63
2023/02/18 03:35:01;;;;;;;3.30;3.10;;;;;;;8.43;100.00;97570.63;5056638;28;20210;-64
2023/02/18 03:37:32;;;;;;;2.50;2.30;;;;;;;8.44;100.00;97588.13;5049971;28;20941;-62
2023/02/18 03:40:01;;;;;;;2.30;2.20;;;;;;;8.46;100.00;97580.84;5055094;28;20267;-64
2023/02/18 03:42:29;;;;;;;2.13;2.03;;;;;;;8.47;100.00;97577.22;5022560;28;20521;-62
2023/02/18 03:44:58;;;;;;;3.30;2.40;;;;;;;8.46;100.00;97584.34;5064991;28;20733;-62
2023/02/18 03:47:25;;;;;;;2.07;1.97;;;;;;;8.42;100.00;97577.72;5067151;28;20289;-63
2023/02/18 03:49:53;;;;;;;2.20;2.10;;;;;;;8.36;100.00;97576.53;5019476;28;20499;-63
2023/02/18 03:52:21;;;;;;;2.27;2.17;;;;;;;8.43;100.00;97589.09;5059913;28;20230;-63
2023/02/18 03:54:50;;;;;;;2.27;2.17;;;;;;;8.42;100.00;97580.38;5045085;28;20199;-65
2023/02/18 03:57:18;;;;;;;2.43;2.33;;;;;;;8.39;100.00;97586.78;5029056;28;20293;-63
2023/02/18 03:59:46;;;;;;;2.23;2.13;;;;;;;8.43;100.00;97578.53;5056722;28;20656;-65
2023/02/18 04:02:14;;;;;;;2.27;2.17;;;;;;;8.43;100.00;97586.47;5063834;28;20279;-63
2023/02/18 04:04:41;;;;;;;2.10;2.00;;;;;;;8.47;100.00;97579.88;5041711;28;20230;-65
2023/02/18 04:07:09;;;;;;;1.97;1.87;;;;;;;8.47;100.00;97583.34;5064741;28;20230;-63
2023/02/18 04:09:36;;;;;;;2.10;2.00;;;;;;;8.48;100.00;97598.22;5043580;28;21494;-65
2023/02/18 04:12:06;;;;;;;2.03;1.97;;;;;;;8.44;100.00;97598.69;5065417;28;20210;-65
2023/02/18 04:14:34;;;;;;;2.37;2.20;;;;;;;8.48;100.00;97590.28;5026366;28;20206;-64
2023/02/18 04:17:01;;;;;;;2.00;1.90;;;;;;;8.45;100.00;97603.81;5039142;28;20206;-63
2023/02/18 04:19:29;;;;;;;2.47;2.10;;;;;;;8.44;100.00;97598.69;5064641;28;20206;-63
2023/02/18 04:21:57;;;;;;;2.13;2.03;;;;;;;8.45;100.00;97609.09;5042534;28;20210;-62
2023/02/18 04:24:24;;;;;;;2.03;1.93;;;;;;;8.43;100.00;97597.03;5065000;28;20207;-64
2023/02/18 04:26:52;;;;;;;1.97;1.87;;;;;;;8.45;100.00;97587.13;5019787;28;20213;-63
2023/02/18 04:29:22;;;;;;;2.13;2.03;;;;;;;8.40;100.00;97585.78;5022016;28;20348;-65
2023/02/18 04:31:49;;;;;;;2.00;1.90;;;;;;;8.39;100.00;97599.19;5062233;28;20202;-63
2023/02/18 04:34:17;;;;;;;1.73;1.63;;;;;;;8.39;100.00;97596.53;5062348;28;20232;-64
2023/02/18 04:36:44;;;;;;;3.10;2.90;;;;;;;8.33;100.00;97591.88;5036091;28;20229;-62
2023/02/18 04:39:12;;;;;;;2.10;2.00;;;;;;;8.34;100.00;97593.56;5056606;28;20861;-62
2023/02/18 04:41:40;;;;;;;2.07;1.93;;;;;;;8.34;100.00;97598.84;5039804;28;20217;-64
2023/02/18 04:44:07;;;;;;;1.80;1.80;;;;;;;8.35;100.00;97589.94;5015377;28;20484;-63
2023/02/18 04:46:36;;;;;;;2.10;2.00;;;;;;;8.33;100.00;97587.44;5059253;28;20245;-64
2023/02/18 04:49:04;;;;;;;2.00;1.90;;;;;;;8.36;100.00;97587.09;5057599;28;20202;-62
2023/02/18 04:51:32;;;;;;;2.20;2.10;;;;;;;8.35;100.00;97588.09;5038619;28;20262;-63
2023/02/18 04:53:59;;;;;;;2.60;2.50;;;;;;;8.36;100.00;97587.09;5059422;28;20223;-62
2023/02/18 04:56:27;;;;;;;1.93;1.77;;;;;;;8.43;100.00;97591.75;5041185;28;20671;-63
2023/02/18 04:58:55;;;;;;;2.43;2.23;;;;;;;8.30;100.00;97579.84;5060081;28;20202;-63
2023/02/18 05:01:22;;;;;;;1.97;1.87;;;;;;;8.38;100.00;97594.88;5019717;28;20478;-64
2023/02/18 05:03:51;;;;;;;2.30;2.20;;;;;;;8.52;100.00;97598.72;5064200;28;20225;-63
2023/02/18 05:06:19;;;;;;;2.33;2.23;;;;;;;8.66;100.00;97584.91;5037423;28;20232;-61
2023/02/18 05:08:46;;;;;;;2.47;2.37;;;;;;;8.59;100.00;97585.72;5046484;28;20209;-64
2023/02/18 05:11:14;;;;;;;2.43;2.30;;;;;;;8.45;100.00;97590.63;5064436;28;20577;-66
2023/02/18 05:13:42;;;;;;;2.23;2.13;;;;;;;8.39;100.00;97588.63;5046984;28;20234;-65
2023/02/18 05:16:09;;;;;;;2.13;2.03;;;;;;;8.37;100.00;97590.59;5018861;28;20696;-65
2023/02/18 05:18:37;;;;;;;2.87;2.67;;;;;;;8.35;100.00;97601.28;5068492;28;20194;-65
2023/02/18 05:21:06;;;;;;;2.40;2.30;;;;;;;8.28;100.00;97600.28;5063884;28;20202;-65
2023/02/18 05:23:34;;;;;;;2.60;2.07;;;;;;;8.25;100.00;97593.50;5046338;28;20233;-66
2023/02/18 05:26:03;;;;;;;2.40;2.30;;;;;;;8.25;100.00;97605.88;5063981;28;20245;-67
2023/02/18 05:28:31;;;;;;;2.80;2.70;;;;;;;8.17;100.00;97596.09;5049306;28;20209;-67
2023/02/18 05:30:59;;;;;;;2.50;2.40;;;;;;;8.11;100.00;97599.38;5062381;28;20495;-65
2023/02/18 05:33:27;;;;;;;2.70;2.60;;;;;;;8.07;100.00;97619.97;5017850;28;20227;-63
2023/02/18 05:35:54;;;;;;;2.83;2.63;;;;;;;7.95;100.00;97606.25;5062314;28;20195;-65
2023/02/18 05:38:23;;;;;;;2.53;2.43;;;;;;;8.00;100.00;97620.78;5042558;28;20901;-65
2023/02/18 05:40:51;;;;;;;2.70;2.60;;;;;;;8.03;100.00;97612.56;5070589;28;20202;-65
2023/02/18 05:43:18;;;;;;;3.93;3.70;;;;;;;7.96;100.00;97622.91;5045979;28;20579;-67
2023/02/18 05:45:46;;;;;;;3.47;3.27;;;;;;;7.95;100.00;97613.31;5061868;28;20233;-66
2023/02/18 05:48:13;;;;;;;2.90;2.80;;;;;;;7.94;100.00;97619.59;5023996;28;20339;-64
2023/02/18 05:50:41;;;;;;;3.40;3.20;;;;;;;7.96;100.00;97620.25;5068970;28;20281;-67
2023/02/18 05:53:09;;;;;;;3.60;3.40;;;;;;;7.92;100.00;97618.91;5045381;28;20230;-65
2023/02/18 05:55:38;;;;;;;3.83;3.03;;;;;;;7.87;100.00;97600.09;5070054;28;20238;-64
2023/02/18 05:58:05;;;;;;;3.67;3.47;;;;;;;7.97;100.00;97608.72;5048404;28;20218;-66
2023/02/18 06:00:33;;;;;;;3.80;3.50;;;;;;;7.91;100.00;97620.72;5053482;28;20206;-66
2023/02/18 06:03:01;;;;;;;4.00;3.60;;;;;;;7.94;100.00;97616.94;5022928;28;20221;-65
2023/02/18 06:05:29;;;;;;;4.03;3.73;;;;;;;7.93;100.00;97620.56;5062576;28;20238;-64
2023/02/18 06:07:56;;;;;;;5.03;3.90;;;;;;;7.88;100.00;97617.56;5045354;28;20298;-64
2023/02/18 06:10:24;;;;;;;3.63;3.43;;;;;;;7.87;100.00;97618.56;5051463;28;20503;-67
2023/02/18 06:12:53;;;;;;;4.30;4.00;;;;;;;7.89;100.00;97616.59;5065913;28;20229;-65
2023/02/18 06:15:20;;;;;;;3.97;3.77;;;;;;;7.89;100.00;97619.22;5056025;28;20202;-66
2023/02/18 06:17:48;;;;;;;4.37;4.07;;;;;;;7.88;100.00;97620.22;5065153;28;20222;-63
2023/02/18 06:20:16;;;;;;;4.00;3.70;;;;;;;7.88;100.00;97613.13;5024106;28;20210;-68
2023/02/18 06:22:43;;;;;;;4.53;4.13;;;;;;;7.95;100.00;97615.97;5064604;28;20695;-64
2023/02/18 06:25:11;;;;;;;3.97;3.70;;;;;;;7.94;100.00;97617.75;5042074;28;20211;-64
2023/02/18 06:27:38;;;;;;;4.47;4.20;;;;;;;7.92;100.00;97616.28;5063557;28;20221;-64
2023/02/18 06:30:09;;;;;;;4.00;3.80;;;;;;;7.90;100.00;97620.88;5039471;28;21074;-66
2023/02/18 06:32:36;;;;;;;5.03;4.57;;;;;;;7.89;100.00;97617.41;5064731;28;20304;-64
2023/02/18 06:35:04;;;;;;;5.13;4.73;;;;;;;7.92;100.00;97626.84;5016859;28;20408;-68
2023/02/18 06:37:32;;;;;;;4.87;4.47;;;;;;;7.87;100.00;97631.75;5061598;28;20463;-67
2023/02/18 06:40:00;;;;;;;5.03;4.73;;;;;;;7.84;100.00;97632.88;5049451;28;20217;-64
2023/02/18 06:42:27;;;;;;;5.23;4.80;;;;;;;7.82;100.00;97635.69;5041035;28;20218;-65
2023/02/18 06:44:55;;;;;;;5.20;4.80;;;;;;;7.79;100.00;97627.25;5070726;28;20540;-66
2023/02/18 06:47:24;;;;;;;5.47;5.07;;;;;;;7.82;100.00;97622.50;5010542;28;20241;-65
2023/02/18 06:49:52;;;;;;;5.07;4.70;;;;;;;7.79;100.00;97621.97;5019994;28;20308;-65
2023/02/18 06:52:19;;;;;;;5.77;5.37;;;;;;;7.77;100.00;97622.13;5066059;28;20308;-63
2023/02/18 06:54:47;;;;;;;5.23;4.93;;;;;;;7.73;100.00;97606.75;5045648;28;20211;-65
2023/02/18 06:57:15;;;;;;;4.83;4.53;;;;;;;7.77;100.00;97630.06;5042001;28;20221;-64
2023/02/18 06:59:42;;;;;;;5.60;5.10;;;;;;;7.80;100.00;97613.91;5066087;28;20312;-65
2023/02/18 07:02:11;;;;;;;4.57;4.17;;;;;;;7.77;100.00;97606.31;5032380;28;20221;-65
2023/02/18 07:04:40;;;;;;;6.80;6.27;;;;;;;7.86;100.00;97612.44;5046936;28;20418;-67
2023/02/18 07:07:07;;;;;;;5.80;5.30;;;;;;;7.87;100.00;97598.28;5018169;28;20744;-68
2023/02/18 07:09:35;;;;;;;5.70;5.20;;;;;;;7.88;100.00;97594.66;5042494;28;21997;-63
2023/02/18 07:12:02;;;;;;;4.70;4.40;;;;;;;7.86;100.00;97596.63;5063136;28;20210;-65
2023/02/18 07:14:30;;;;;;;5.47;5.07;;;;;;;7.76;100.00;97585.34;5060622;28;20891;-63
2023/02/18 07:16:58;;;;;;;4.97;4.67;;;;;;;7.81;100.00;97594.47;5048431;28;20202;-65
2023/02/18 07:19:25;;;;;;;5.13;4.67;;;;;;;7.81;100.00;97588.34;5064242;28;20203;-63
2023/02/18 07:21:56;;;;;;;4.93;4.47;;;;;;;7.78;100.00;97586.03;5019375;28;20752;-65
2023/02/18 07:24:24;;;;;;;5.10;4.80;;;;;;;7.77;100.00;97582.56;5054397;28;20431;-64
2023/02/18 07:26:52;;;;;;;5.40;4.90;;;;;;;7.74;100.00;97582.84;5067596;28;20227;-65
2023/02/18 07:29:19;;;;;;;5.27;4.97;;;;;;;7.74;100.00;97590.78;5067384;28;20198;-64
2023/02/18 07:31:47;;;;;;;5.20;4.57;;;;;;;7.75;100.00;97581.88;5042399;28;20222;-66
2023/02/18 07:34:15;;;;;;;5.30;4.90;;;;;;;7.79;100.00;97577.97;5076934;28;20241;-64
2023/02/18 07:36:42;;;;;;;6.33;5.30;;;;;;;7.80;100.00;97574.34;5014726;28;20218;-65
2023/02/18 07:39:11;;;;;;;5.33;4.93;;;;;;;7.78;100.00;97578.09;5068247;28;20692;-64
2023/02/18 07:41:39;;;;;;;9.13;7.73;;;;;;;7.81;100.00;97578.63;5047930;28;20207;-66
2023/02/18 07:44:07;;;;;;;5.80;5.30;;;;;;;7.84;100.00;97577.47;5063065;28;20221;-66
2023/02/18 07:46:35;;;;;;;5.33;4.83;;;;;;;7.86;100.00;97583.41;5029768;28;20218;-63
2023/02/18 07:49:02;;;;;;;5.10;4.80;;;;;;;7.83;100.00;97581.09;5063108;28;20208;-65
2023/02/18 07:51:30;;;;;;;5.30;4.90;;;;;;;7.77;100.00;97582.56;5017954;28;20894;-64
2023/02/18 07:53:58;;;;;;;5.80;5.37;;;;;;;7.72;100.00;97576.91;5065519;28;20226;-66
2023/02/18 07:56:27;;;;;;;5.80;5.40;;;;;;;7.71;100.00;97582.34;5046499;28;20210;-63
2023/02/18 07:58:54;;;;;;;5.63;5.13;;;;;;;7.72;100.00;97581.38;5066165;28;20210;-65
2023/02/18 08:01:22;;;;;;;5.10;4.80;;;;;;;7.70;100.00;97584.16;5055630;28;20293;-64
2023/02/18 08:03:50;;;;;;;5.93;5.53;;;;;;;7.72;100.00;97581.38;5061661;28;20791;-66
2023/02/18 08:06:21;;;;;;;5.60;5.10;;;;;;;7.67;100.00;97580.03;5038568;28;20202;-65
2023/02/18 08:08:49;;;;;;;5.13;4.83;;;;;;;7.72;100.00;97591.94;5059167;28;20209;-66
2023/02/18 08:11:17;;;;;;;5.33;4.93;;;;;;;7.69;100.00;97598.31;5054080;28;20212;-64
2023/02/18 08:13:47;;;;;;;6.57;6.07;;;;;;;7.65;100.00;97587.28;5057930;28;20928;-64
2023/02/18 08:16:15;;;;;;;5.60;5.17;;;;;;;7.64;100.00;97588.25;5069129;28;20260;-65
2023/02/18 08:18:43;;;;;;;5.80;5.40;;;;;;;7.68;100.00;97578.22;5044999;28;20476;-66
2023/02/18 08:21:11;;;;;;;6.07;5.67;;;;;;;7.65;100.00;97582.00;5060025;28;20206;-63
2023/02/18 08:23:38;;;;;;;5.27;4.97;;;;;;;7.74;100.00;97582.84;5024019;28;20229;-67
2023/02/18 08:26:06;;;;;;;5.30;4.90;;;;;;;7.75;100.00;97568.69;5048608;28;20309;-67
2023/02/18 08:28:34;;;;;;;5.63;5.20;;;;;;;7.78;100.00;97578.94;5044912;28;20439;-67
2023/02/18 08:31:03;;;;;;;6.10;5.53;;;;;;;7.85;100.00;97576.50;5065925;28;20658;-64
2023/02/18 08:33:31;;;;;;;5.97;5.57;;;;;;;8.00;100.00;97568.00;5043612;28;20233;-66
2023/02/18 08:35:59;;;;;;;5.50;5.10;;;;;;;8.11;100.00;97562.44;5054395;28;20209;-65
2023/02/18 08:38:27;;;;;;;5.50;5.10;;;;;;;8.23;100.00;97557.69;5015051;28;20213;-62
2023/02/18 08:41:01;;;;;;;5.43;5.13;;;;;;;8.47;100.00;97556.09;5065013;28;20202;-65
2023/02/18 08:43:28;;;;;;;5.60;5.20;;;;;;;8.44;100.00;97551.16;5043469;28;20260;-65
2023/02/18 08:45:57;;;;;;;5.17;4.77;;;;;;;8.37;100.00;97538.59;5065792;28;22623;-64
2023/02/18 08:48:27;;;;;;;4.47;4.17;;;;;;;8.40;100.00;97526.91;5060137;28;20947;-64
2023/02/18 08:50:55;;;;;;;5.13;4.83;;;;;;;8.45;100.00;97526.38;5044121;28;20593;-65
2023/02/18 08:53:23;;;;;;;5.10;4.80;;;;;;;8.43;100.00;97523.94;4993414;28;22695;-64
2023/02/18 08:55:51;;;;;;;4.90;4.60;;;;;;;8.52;100.00;97516.84;5062620;28;20206;-64
2023/02/18 08:58:19;;;;;;;4.40;4.10;;;;;;;8.56;100.00;97512.94;5038908;28;20846;-65
2023/02/18 09:00:46;;;;;;;4.60;4.30;;;;;;;8.64;100.00;97526.13;5068259;28;20364;-65
2023/02/18 09:03:15;;;;;;;4.63;4.23;;;;;;;8.79;100.00;97512.28;5065745;28;20252;-64
2023/02/18 09:05:44;;;;;;;3.97;3.70;;;;;;;9.08;100.00;97498.56;5046405;28;20210;-66
2023/02/18 09:08:11;;;;;;;4.47;4.07;;;;;;;9.08;100.00;97484.53;5059016;28;20221;-64
2023/02/18 09:10:39;;;;;;;3.90;3.53;;;;;;;9.33;100.00;97479.22;5023649;28;20202;-65
2023/02/18 09:13:07;;;;;;;4.27;4.07;;;;;;;9.38;100.00;97467.09;5061005;28;20571;-64
2023/02/18 09:15:34;;;;;;;4.27;3.97;;;;;;;9.60;100.00;97470.03;5058970;28;20210;-65
2023/02/18 09:18:02;;;;;;;4.17;3.87;;;;;;;9.63;100.00;97455.63;5069953;28;20252;-65
2023/02/18 09:20:30;;;;;;;3.37;3.17;;;;;;;9.75;100.00;97461.38;5049782;28;20210;-64
2023/02/18 09:22:59;;;;;;;3.17;2.97;;;;;;;9.71;100.00;97460.91;5068975;28;20762;-65
2023/02/18 09:25:27;;;;;;;3.63;3.43;;;;;;;9.69;100.00;97454.97;5008351;28;20414;-65
2023/02/18 09:27:54;;;;;;;3.40;3.17;;;;;;;9.69;100.00;97447.84;5060631;28;20218;-64
2023/02/18 09:30:22;;;;;;;3.60;3.30;;;;;;;9.88;100.00;97439.66;5043291;28;20195;-66
2023/02/18 09:32:50;;;;;;;2.80;2.60;;;;;;;9.90;100.00;97441.13;5047728;28;20249;-64
2023/02/18 09:35:18;;;;;;;4.40;4.10;;;;;;;9.97;100.00;97423.56;5060248;28;20361;-65
2023/02/18 09:37:45;;;;;;;3.50;3.30;;;;;;;10.06;100.00;97429.63;5043443;28;20206;-65
2023/02/18 09:40:23;;;;;;;3.30;3.10;;;;;;;10.24;100.00;97416.13;5067231;28;20337;-65
2023/02/18 09:42:51;;;;;;;3.57;3.37;;;;;;;10.69;99.55;97424.25;5022108;28;20221;-65
2023/02/18 09:45:20;;;;;;;2.97;2.73;;;;;;;10.65;97.83;97403.59;5049641;28;20202;-66
2023/02/18 09:47:49;;;;;;;3.13;2.90;;;;;;;10.66;94.62;97402.59;5067335;28;20474;-65
2023/02/18 09:50:20;;;;;;;2.93;2.77;;;;;;;10.83;95.95;97405.91;5067171;28;20195;-66
2023/02/18 09:52:47;;;;;;;3.20;3.00;;;;;;;10.81;92.13;97402.63;5049807;28;20532;-65
2023/02/18 09:55:20;;;;;;;3.43;3.23;;;;;;;10.83;91.15;97392.66;5072195;28;20214;-64
2023/02/18 09:57:50;;;;;;;2.70;2.60;;;;;;;10.60;90.51;97401.47;5017921;28;20207;-64
2023/02/18 10:00:20;;;;;;;2.90;2.60;;;;;;;10.61;90.92;97394.34;5072220;28;20202;-64
2023/02/18 10:02:54;;;;;;;3.57;3.33;;;;;;;10.54;89.71;97396.88;5044216;28;20328;-64
2023/02/18 10:05:23;;;;;;;2.83;2.70;;;;;;;10.56;90.95;97408.94;5034078;28;20693;-66
2023/02/18 10:07:54;;;;;;;2.33;2.23;;;;;;;10.58;89.91;97406.13;5029810;28;20230;-65
2023/02/18 10:10:33;;;;;;;2.53;2.43;;;;;;;10.65;89.66;97417.66;5061960;28;20206;-64
2023/02/18 10:13:00;;;;;;;3.33;3.13;;;;;;;10.65;88.81;97390.34;5015037;28;20495;-65
2023/02/18 10:15:30;;;;;;;2.70;2.60;;;;;;;10.78;87.75;97406.44;5050437;28;20463;-64
2023/02/18 10:17:58;;;;;;;2.97;2.87;;;;;;;10.76;87.25;97399.66;5046413;28;20576;-66
2023/02/18 10:20:29;;;;;;;2.70;2.60;;;;;;;10.91;86.08;97400.53;5066176;28;20419;-66
2023/02/18 10:22:59;;;;;;;2.60;2.50;;;;;;;11.03;85.77;97387.66;5036963;28;20740;-65
2023/02/18 10:25:28;;;;;;;3.17;2.80;;;;;;;10.92;84.56;97386.28;5021428;28;20201;-64
2023/02/18 10:27:57;;;;;;;3.40;3.20;;;;;;;10.90;85.26;97384.78;5014026;28;20231;-64
2023/02/18 10:30:29;;;;;;;2.60;2.50;;;;;;;10.80;86.06;97385.88;5073980;28;20218;-66
2023/02/18 10:33:16;;;;;;;2.60;2.50;;;;;;;10.84;86.53;97387.16;5045613;28;20303;-64
2023/02/18 10:35:49;;;;;;;2.70;2.50;;;;;;;10.76;86.89;97375.81;5037560;28;20210;-64
2023/02/18 10:38:20;;;;;;;2.80;2.37;;;;;;;10.67;85.76;97365.28;5048723;28;20216;-65
2023/02/18 10:40:57;;;;;;;2.40;2.20;;;;;;;10.72;87.05;97380.66;5047180;28;20511;-64
2023/02/18 10:43:33;;;;;;;2.60;2.50;;;;;;;10.73;85.98;97370.88;5002895;28;20328;-64
2023/02/18 10:46:07;;;;;;;3.17;2.97;;;;;;;10.86;83.71;97373.75;5069416;28;20508;-66
2023/02/18 10:48:48;;;;;;;2.60;2.40;;;;;;;10.94;83.67;97372.81;5044966;28;20244;-64
2023/02/18 10:51:19;;;;;;;2.73;2.63;;;;;;;10.98;83.32;97366.97;5062257;28;20199;-66
2023/02/18 10:53:48;;;;;;;2.63;2.40;;;;;;;11.00;83.24;97364.16;5017661;28;20471;-64
2023/02/18 10:56:37;;;;;;;2.63;2.43;;;;;;;11.00;83.78;97350.91;5043809;28;20211;-67
2023/02/18 10:59:10;;;;;;;2.50;2.30;;;;;;;11.16;82.34;97365.78;5021417;28;20214;-67
2023/02/18 11:01:39;;;;;;;2.73;2.53;;;;;;;11.35;82.03;97353.00;5067532;28;20281;-61
2023/02/18 11:04:14;;;;;;;2.37;2.17;;;;;;;11.37;80.44;97333.25;5046236;28;20234;-64
2023/02/18 11:06:44;;;;;;;2.53;2.43;;;;;;;11.39;79.43;97325.06;5067752;28;20801;-62
2023/02/18 11:09:25;;;;;;;2.83;2.63;;;;;;;11.49;79.42;97325.59;5067066;28;20272;-60
2023/02/18 11:12:03;;;;;;;2.67;2.57;;;;;;;11.51;78.44;97320.13;5048890;28;20202;-65
2023/02/18 11:14:41;;;;;;;2.37;2.27;;;;;;;11.47;78.17;97318.84;5026801;28;20746;-65
2023/02/18 11:17:17;;;;;;;3.00;2.80;;;;;;;11.60;78.42;97320.84;5046218;28;20628;-65
2023/02/18 11:19:52;;;;;;;3.03;2.83;;;;;;;11.34;78.01;97309.72;5048706;28;20198;-66
2023/02/18 11:22:23;;;;;;;3.70;2.17;;;;;;;11.36;78.53;97309.53;5040774;28;20332;-67
2023/02/18 11:24:54;;;;;;;2.47;2.37;;;;;;;11.52;78.45;97288.06;5066393;28;20216;-66
2023/02/18 11:27:26;;;;;;;2.53;2.43;;;;;;;11.44;78.26;97306.78;5042121;28;20206;-68
2023/02/18 11:29:56;;;;;;;2.83;2.70;;;;;;;11.39;77.68;97296.72;5020704;28;20218;-66
2023/02/18 11:32:27;;;;;;;2.73;2.53;;;;;;;11.33;77.30;97300.09;5062911;28;20325;-67
2023/02/18 11:34:55;;;;;;;2.47;2.37;;;;;;;11.40;77.06;97286.94;5063540;28;20195;-66
2023/02/18 11:37:23;;;;;;;2.87;2.67;;;;;;;11.40;76.95;97293.06;5028928;28;20497;-67
2023/02/18 11:39:53;;;;;;;2.23;2.13;;;;;;;11.35;77.77;97289.31;5063506;28;20201;-68
2023/02/18 11:42:25;;;;;;;2.53;2.42;;;;;;;11.38;77.90;97265.06;5045047;28;20444;-68
2023/02/18 11:44:53;;;;;;;2.60;2.50;;;;;;;11.42;77.30;97259.22;5022526;28;20217;-65